Flight Track Log - Related Links

Times and Time Zones

All times are in EST time to prevent confusion due to time zone crossing. See the N77VZ flight status page for this flight to view local times or setup timezone preferences in your user account.

Time Position Orientation Groundspeed Altitude Reporting Facility
EST Latitude Longitude Course Direction KTS MPH feet Rate Location/Type
Fri 10:18:39 AM 35.7800 -81.1361 197° South 349 402 8,900  Level Atlanta Center
Fri 10:19:39 AM 35.7858 -81.2153 275° West 290 334 10,000 550 Climbing Atlanta Center
Fri 10:20:39 AM 35.7922 -81.3044 275° West 270 311 10,000  Level Atlanta Center
Fri 10:21:39 AM 35.7522 -81.3828 238° Southwest 257 296 10,000  Level Atlanta Center
Fri 10:22:00 AM 35.3728 -80.9910 190° South  Level Estimated
Fri 10:22:39 AM 35.6972 -81.4536 226° Southwest 272 313 10,000  Level Atlanta Center
Fri 10:23:00 AM 35.2977 -81.0194 197° South  Level FlightAware Approximate
Fri 10:23:39 AM 35.6425 -81.5267 227° Southwest 285 328 10,600  Level Atlanta Center
Fri 10:24:39 AM 35.5917 -81.5997 229° Southwest 285 328 12,100 1,650 Climbing Atlanta Center
Fri 10:25:39 AM 35.5083 -81.5997 180° South 285 328 13,900 2,050 Climbing Atlanta Center
Fri 10:26:39 AM 35.4269 -81.5972 179° South 291 335 16,200 1,300 Climbing Atlanta Center
Fri 10:27:39 AM 35.3372 -81.5922 177° South 302 348 16,500 150 Climbing Atlanta Center
Fri 10:28:39 AM 35.2456 -81.6025 185° South 317 365 16,500  Level Atlanta Center
Fri 10:29:39 AM 35.1539 -81.6128 185° South 330 380 16,500 400 Level Atlanta Center
Fri 10:30:39 AM 35.0644 -81.6231 185° South 330 380 17,300 500 Climbing Atlanta Center
Fri 10:31:39 AM 34.9708 -81.6358 186° South 330 380 17,500 100 Climbing Atlanta Center
Fri 10:32:39 AM 34.8811 -81.6461 185° South 330 380 17,500  Level Atlanta Center
Fri 10:33:39 AM 34.7875 -81.6564 185° South 330 380 17,500  Level Atlanta Center
Fri 10:34:39 AM 34.6939 -81.6667 185° South 330 380 17,500  Level Atlanta Center
Fri 10:35:39 AM 34.5939 -81.6769 185° South 330 380 17,500  Level Atlanta Center
Fri 10:37:55 AM 34.3961 -81.6972 185° South 332 382 17,500  Level Jacksonville Center
Fri 10:38:55 AM 34.3044 -81.7111 187° South 332 382 17,500  Level Jacksonville Center
Fri 10:39:55 AM 34.2150 -81.7200 185° South 332 382 17,500  Level Jacksonville Center
Fri 10:40:55 AM 34.1272 -81.7286 185° South 332 382 17,500  Level Jacksonville Center
Fri 10:41:55 AM 34.0419 -81.7397 186° South 327 376 17,500  Level Jacksonville Center
Fri 10:42:55 AM 33.9586 -81.7483 185° South 315 362 17,500  Level Jacksonville Center
Fri 10:43:55 AM 33.8772 -81.7569 185° South 303 349 17,500  Level Jacksonville Center
Fri 10:44:55 AM 33.7958 -81.7656 185° South 303 349 17,500  Level Jacksonville Center
Fri 10:45:55 AM 33.7125 -81.7764 186° South 303 349 17,500  Level Jacksonville Center
Fri 10:46:55 AM 33.6292 -81.7825 183° South 298 343 17,500  Level Jacksonville Center
Fri 10:47:55 AM 33.5478 -81.7936 186° South 298 343 17,500  Level Jacksonville Center
Fri 10:48:55 AM 33.4664 -81.8019 185° South 298 343 17,500  Level Jacksonville Center
Fri 10:49:55 AM 33.3853 -81.8106 185° South 298 343 17,500  Level Jacksonville Center
Fri 10:50:55 AM 33.3017 -81.8214 186° South 298 343 17,500  Level Jacksonville Center
Fri 10:51:55 AM 33.2206 -81.8322 186° South 298 343 17,500  Level Jacksonville Center
Fri 10:52:55 AM 33.1411 -81.8408 185° South 292 336 17,500  Level Jacksonville Center
Fri 10:53:55 AM 33.0600 -81.8467 183° South 292 336 17,500  Level Jacksonville Center
Fri 10:54:55 AM 32.9786 -81.8575 186° South 292 336 17,500  Level Jacksonville Center
Fri 10:55:55 AM 32.8972 -81.8658 185° South 292 336 17,500  Level Jacksonville Center
Fri 10:56:55 AM 32.8139 -81.8742 185° South 292 336 17,500  Level Jacksonville Center
Fri 10:57:55 AM 32.7344 -81.8850 187° South 292 336 17,500  Level Jacksonville Center
Fri 10:58:55 AM 32.6553 -81.8958 187° South 292 336 17,500  Level Jacksonville Center
Fri 11:00:55 AM 32.4842 -81.9125 185° South 292 336 17,500  Level Jacksonville Center
Fri 11:01:55 AM 32.4133 -81.9206 185° South 292 336 17,500  Level Jacksonville Center
Fri 11:02:55 AM 32.3236 -81.9314 186° South 292 336 17,500 150 Level Jacksonville Center
Fri 11:03:55 AM 32.2486 -81.9394 185° South 297 342 17,800 950 Climbing Jacksonville Center
Fri 11:04:55 AM 32.1525 -81.9528 187° South 312 359 19,400 1,450 Climbing Jacksonville Center
Fri 11:05:55 AM 32.0628 -81.9636 186° South 326 375 20,700 1,300 Climbing Jacksonville Center
Fri 11:06:55 AM 31.9817 -81.9742 186° South 334 384 22,000 1,450 Climbing Jacksonville Center
Fri 11:07:55 AM 31.8814 -81.9872 186° South 329 379 23,600 1,750 Climbing Jacksonville Center
Fri 11:08:55 AM 31.7939 -81.9981 186° South 329 379 25,500 1,850 Climbing Jacksonville Center
Fri 11:09:55 AM 31.7208 -82.0061 185° South 317 365 27,300 1,250 Climbing Jacksonville Center
Fri 11:10:55 AM 31.6292 -82.0214 188° South 297 342 28,000 350 Climbing Jacksonville Center
Fri 11:11:55 AM 31.5456 -82.0344 188° South 311 358 28,000  Level Jacksonville Center
Fri 11:12:55 AM 31.4497 -82.0450 185° South 332 382 28,000  Level Jacksonville Center
Fri 11:13:55 AM 31.3536 -82.0581 187° South 348 400 28,000  Level Jacksonville Center
Fri 11:14:55 AM 31.2556 -82.0711 186° South 353 406 28,000  Level Jacksonville Center
Fri 11:15:55 AM 31.1575 -82.0867 188° South 353 406 28,000  Level Jacksonville Center
Fri 11:16:55 AM 31.0575 -82.0994 186° South 353 406 28,000  Level Jacksonville Center
Fri 11:17:55 AM 30.9594 -82.1100 185° South 358 412 28,000  Level Jacksonville Center
Fri 11:18:55 AM 30.8614 -82.1231 187° South 358 412 28,000  Level Jacksonville Center
Fri 11:19:55 AM 30.7611 -82.1358 186° South 358 412 28,000  Level Jacksonville Center
Fri 11:20:55 AM 30.6631 -82.1486 186° South 363 418 28,000  Level Jacksonville Center
Fri 11:21:55 AM 30.5650 -82.1617 187° South 363 418 28,000  Level Jacksonville Center
Fri 11:22:55 AM 30.4628 -82.1694 184° South 350 403 28,000  Level Jacksonville Center
Fri 11:23:55 AM 30.3689 -82.1822 187° South 345 397 28,000 -50 Level Jacksonville Center
Fri 11:24:55 AM 30.2750 -82.1903 184° South 350 403 27,900 -300 Descending Jacksonville Center
Fri 11:25:55 AM 30.1747 -82.1669 169° South 356 410 27,400 -450 Descending Jacksonville Center
Fri 11:26:55 AM 30.0722 -82.1461 170° South 361 415 27,000 -200 Descending Jacksonville Center
Fri 11:27:55 AM 29.9719 -82.1278 171° South 368 423 27,000  Level Jacksonville Center
Fri 11:28:55 AM 29.8736 -82.1022 167° South 368 423 27,000  Level Jacksonville Center
Fri 11:29:55 AM 29.7753 -82.0814 170° South 368 423 27,000  Level Jacksonville Center
Fri 11:30:55 AM 29.6750 -82.0558 168° South 368 423 27,000  Level Jacksonville Center
Fri 11:31:55 AM 29.5789 -82.0353 169° South 373 429 27,000  Level Jacksonville Center
Fri 11:32:55 AM 29.4786 -82.0147 170° South 367 422 27,000  Level Jacksonville Center
Fri 11:33:55 AM 29.3803 -81.9964 171° South 367 422 27,000  Level Jacksonville Center
Fri 11:34:55 AM 29.2819 -81.9711 167° South 367 422 27,000 -100 Level Jacksonville Center
Fri 11:35:55 AM 29.1794 -81.9483 169° South 373 429 26,800 -350 Descending Jacksonville Center
Fri 11:36:55 AM 29.0769 -81.9233 168° South 373 429 26,300 -450 Descending Jacksonville Center
Fri 11:37:55 AM 28.9725 -81.9006 169° South 373 429 25,900 -396 Descending Jacksonville Center
Fri 11:40:12 AM 28.7519 -81.8539 169° South 368 423 25,000 -274 Descending Miami Center
Fri 11:41:12 AM 28.6483 -81.8306 169° South 376 433 25,000  Level Miami Center
Fri 11:42:12 AM 28.5469 -81.8069 168° South 376 433 25,000  Level Miami Center
Fri 11:43:12 AM 28.4478 -81.7814 167° South 376 433 25,000 -300 Level Miami Center
Fri 11:44:12 AM 28.3314 -81.7669 174° South 371 427 24,400 -500 Descending Miami Center
Fri 11:45:12 AM 28.2314 -81.7625 178° South 366 421 24,000 -500 Descending Miami Center
Fri 11:46:12 AM 28.1400 -81.7561 176° South 355 409 23,400 -700 Descending Miami Center
Fri 11:47:12 AM 28.0461 -81.7544 179° South 343 395 22,600 -850 Descending Miami Center
Fri 11:48:12 AM 27.9511 -81.7269 166° South 343 395 21,700 -850 Descending Miami Center
Fri 11:49:12 AM 27.8644 -81.6997 164° South 343 395 20,900 -750 Descending Miami Center
Fri 11:50:12 AM 27.7858 -81.6753 165° South 332 382 20,200 -750 Descending Miami Center
Fri 11:51:12 AM 27.6992 -81.6506 166° South 326 375 19,400 -900 Descending Miami Center
Fri 11:52:12 AM 27.6042 -81.6206 164° South 321 369 18,400 -900 Descending Miami Center
Fri 11:53:12 AM 27.5192 -81.5961 166° South 321 369 17,600 -1,050 Descending Miami Center
Fri 11:54:12 AM 27.4367 -81.5717 165° South 316 364 16,300 -1,250 Descending Miami Center
Fri 11:55:12 AM 27.3539 -81.5472 165° South 311 358 15,100 -1,200 Descending Miami Center
Fri 11:56:12 AM 27.2711 -81.5228 165° South 311 358 13,900 -1,200 Descending Miami Center
Fri 11:57:12 AM 27.1886 -81.4986 165° South 311 358 12,700 -1,250 Descending Miami Center
Fri 11:58:12 AM 27.1078 -81.4742 165° South 311 358 11,400 -1,250 Descending Miami Center
Fri 11:59:12 AM 27.0292 -81.4525 166° South 311 358 10,200 -700 Descending Miami Center
Fri 12:00:12 PM 26.9569 -81.4286 164° South 280 322 10,000 -100 Descending Miami Center
Fri 12:01:12 PM 26.8803 -81.4047 164° South 280 322 10,000  Level Miami Center
Fri 12:02:12 PM 26.8033 -81.3969 175° South 280 322 10,000  Level Miami Center
Fri 12:03:12 PM 26.7239 -81.4011 183° South 275 316 10,000  Level Miami Center
Fri 12:04:12 PM 26.6486 -81.4050 183° South 280 322 10,000  Level Miami Center
Fri 12:05:12 PM 26.5692 -81.4114 184° South 280 322 10,000  Level Miami Center
Fri 12:06:12 PM 26.4917 -81.4175 184° South 280 322 10,000  Level Miami Center
Fri 12:08:00 PM 26.3776 -81.5383 204° Southwest  Level Estimated
Fri 12:15:00 PM 26.1500 -81.7667 204° Southwest  Level FlightAware Approximate
Fri 12:16:00 PM 26.1524 -81.7756 204° Southwest  Level Estimated
Fri 12:17:00 PM 26.1524 -81.7756 204° Southwest  Level Estimated
Fri 12:18:00 PM 26.1524 -81.7756 204° Southwest  Level Estimated
Fri 12:19:00 PM 26.1524 -81.7756 204° Southwest  Level Estimated
Fri 12:20:00 PM 26.1524 -81.7756 204° Southwest  Level Estimated
Fri 12:21:00 PM 26.1524 -81.7756 204° Southwest  Level Estimated
Fri 12:22:00 PM 26.1524 -81.7756 204° Southwest  Level Estimated
Fri 12:23:00 PM 26.1524 -81.7756 204° Southwest  Level Estimated

Login

Don't have an account? Register now (free) for customized features, flight alerts, and more!